Brodhead, Kentucky
Current Conditions -  °F | °C
As of 4:35 PM on Friday 19 Dec 2014 (Local Time) from KI39 Reporting Station
Clear Clear  
Wind Chill: 34°   Ceiling: Unl
Heat Index: 34°   Visibility: 10mi
Dew Point: 23°   Wind: 3mph
Humidity: 65%   Direction: 320°NW
Pressure: 30.25"   Gusts: NA
Location:  37.4°N, 84.41°W
Report Text: KI39 192135Z AUTO 32003KT 10SM CLR 01/M05 A3025 RMK AO2
Loading
Personal Weather Stations






























Interactive Weather Map New forecast layout! Learn more

10-Day Weather Forecast

Advertisements
Track Severe Weather on mobile